createdAt,value
2023-01-11T00:04:37.175Z,100.0
2023-01-11T00:09:37.113Z,100.0
2023-01-11T00:14:37.125Z,100.0
2023-01-11T00:19:37.130Z,100.0
2023-01-11T00:24:37.199Z,100.0
2023-01-11T00:29:37.210Z,100.0
2023-01-11T00:34:37.138Z,100.0
2023-01-11T00:39:37.144Z,100.0
2023-01-11T00:44:37.140Z,100.0
2023-01-11T00:49:37.157Z,100.0
2023-01-11T00:54:37.189Z,100.0
2023-01-11T00:59:37.347Z,100.0
2023-01-11T01:04:37.162Z,100.0
2023-01-11T01:09:37.160Z,100.0
2023-01-11T01:14:37.160Z,100.0
2023-01-11T01:19:37.187Z,100.0
2023-01-11T01:24:37.226Z,100.0
2023-01-11T01:29:37.439Z,100.0
2023-01-11T01:34:37.166Z,100.0
2023-01-11T01:39:37.165Z,100.0
2023-01-11T01:44:37.179Z,100.0
2023-01-11T01:49:37.175Z,100.0
2023-01-11T01:54:37.231Z,100.0
2023-01-11T01:59:37.448Z,100.0
2023-01-11T02:04:37.194Z,100.0
2023-01-11T02:09:37.189Z,100.0
2023-01-11T02:14:37.192Z,100.0
2023-01-11T02:19:37.196Z,100.0
2023-01-11T02:24:37.260Z,100.0
2023-01-11T02:29:37.319Z,100.0
2023-01-11T02:34:37.210Z,100.0
2023-01-11T02:39:37.200Z,100.0
2023-01-11T02:44:37.206Z,100.0
2023-01-11T02:49:37.213Z,100.0
2023-01-11T02:54:37.269Z,100.0
2023-01-11T02:59:37.284Z,100.0
2023-01-11T03:04:37.228Z,100.0
2023-01-11T03:09:37.227Z,100.0
2023-01-11T03:14:37.223Z,100.0
2023-01-11T03:19:37.231Z,100.0
2023-01-11T03:24:37.291Z,100.0
2023-01-11T03:29:37.349Z,100.0
2023-01-11T03:34:37.253Z,100.0
2023-01-11T03:39:37.238Z,100.0
2023-01-11T03:44:37.241Z,100.0
2023-01-11T03:49:37.255Z,100.0
2023-01-11T03:54:37.315Z,100.0
2023-01-11T03:59:37.364Z,100.0
2023-01-11T04:04:37.316Z,100.0
2023-01-11T04:09:38.280Z,100.0
2023-01-11T04:14:37.267Z,100.0
2023-01-11T04:19:37.258Z,100.0
2023-01-11T04:24:37.462Z,100.0
2023-01-11T04:29:37.400Z,100.0
2023-01-11T04:34:37.268Z,100.0
2023-01-11T04:39:37.275Z,100.0
2023-01-11T04:44:37.281Z,100.0
2023-01-11T04:49:37.284Z,100.0
2023-01-11T04:54:37.349Z,100.0
2023-01-11T04:59:37.344Z,100.0
2023-01-11T05:04:37.320Z,100.0
2023-01-11T05:09:37.307Z,100.0
2023-01-11T05:14:37.311Z,100.0
2023-01-11T05:19:37.309Z,100.0
2023-01-11T05:24:37.371Z,100.0
2023-01-11T05:29:37.451Z,100.0
2023-01-11T05:34:37.337Z,100.0
2023-01-11T05:39:37.321Z,100.0
2023-01-11T05:44:37.339Z,100.0
2023-01-11T05:49:37.326Z,100.0
2023-01-11T05:54:37.404Z,100.0
2023-01-11T05:59:37.445Z,100.0
2023-01-11T06:04:37.341Z,100.0
2023-01-11T06:09:37.357Z,100.0
2023-01-11T06:14:38.321Z,100.0
2023-01-11T06:19:37.350Z,100.0
2023-01-11T06:24:37.479Z,100.0
2023-01-11T06:29:37.467Z,100.0
2023-01-11T06:34:37.470Z,100.0
2023-01-11T06:39:37.360Z,100.0
2023-01-11T06:44:37.404Z,100.0
2023-01-11T06:49:37.366Z,100.0
2023-01-11T06:54:37.470Z,100.0
2023-01-11T06:59:37.487Z,100.0
2023-01-11T07:04:37.901Z,100.0
2023-01-11T07:09:37.379Z,100.0
2023-01-11T07:14:37.389Z,100.0
2023-01-11T07:19:37.381Z,100.0
2023-01-11T07:24:37.591Z,100.0
2023-01-11T07:29:37.512Z,100.0
2023-01-11T07:34:37.396Z,100.0
2023-01-11T07:39:43.145Z,100.0
2023-01-11T07:44:37.403Z,100.0
2023-01-11T07:49:37.400Z,100.0
2023-01-11T07:54:37.597Z,100.0
2023-01-11T07:59:37.523Z,100.0
2023-01-11T08:04:37.410Z,100.0
2023-01-11T08:09:37.415Z,100.0
2023-01-11T08:14:37.426Z,100.0
2023-01-11T08:19:37.424Z,100.0
2023-01-11T08:24:37.471Z,100.0
2023-01-11T08:29:37.531Z,100.0
2023-01-11T08:34:37.444Z,100.0
2023-01-11T08:39:37.436Z,100.0
2023-01-11T08:44:37.443Z,100.0
2023-01-11T08:49:37.433Z,100.0
2023-01-11T08:54:37.486Z,100.0
2023-01-11T08:59:37.703Z,100.0
2023-01-11T09:04:37.452Z,100.0
2023-01-11T09:09:37.444Z,100.0
2023-01-11T09:14:37.454Z,100.0
2023-01-11T09:19:37.451Z,100.0
2023-01-11T09:24:37.513Z,100.0
2023-01-11T09:29:37.835Z,100.0
2023-01-11T09:34:37.470Z,100.0
2023-01-11T09:39:37.483Z,100.0
2023-01-11T09:44:37.466Z,100.0
2023-01-11T09:49:37.473Z,100.0
2023-01-11T09:54:37.530Z,100.0
2023-01-11T09:59:37.593Z,100.0
2023-01-11T10:04:37.596Z,100.0
2023-01-11T10:18:33.752Z,100.0
2023-01-11T10:19:40.821Z,100.0
2023-01-11T10:24:37.553Z,100.0
2023-01-11T10:29:37.617Z,100.0
2023-01-11T10:34:37.505Z,100.0
2023-01-11T10:39:37.504Z,100.0
2023-01-11T10:44:37.498Z,100.0
2023-01-11T10:49:37.505Z,99.2
2023-01-11T10:54:37.568Z,98.9
2023-01-11T10:59:37.765Z,98.1
2023-01-11T11:04:37.514Z,98.0
2023-01-11T11:09:37.514Z,97.9
2023-01-11T11:14:37.519Z,97.7
2023-01-11T11:19:37.523Z,96.8
2023-01-11T11:24:37.584Z,95.8
2023-01-11T11:29:37.640Z,96.1
2023-01-11T11:34:37.531Z,95.8
2023-01-11T11:39:37.530Z,96.1
2023-01-11T11:44:37.539Z,96.0
2023-01-11T11:49:37.553Z,96.4
2023-01-11T11:54:37.603Z,96.0
2023-01-11T11:59:37.775Z,95.6
2023-01-11T12:04:37.554Z,94.7
2023-01-11T12:09:37.557Z,93.7
2023-01-11T12:14:37.551Z,93.3
2023-01-11T12:19:37.558Z,93.1
2023-01-11T12:24:37.619Z,92.1
2023-01-11T12:29:37.685Z,91.2
2023-01-11T12:34:37.581Z,91.6
2023-01-11T12:39:37.570Z,91.1
2023-01-11T12:44:37.602Z,90.9
2023-01-11T12:49:37.568Z,90.6
2023-01-11T12:54:37.624Z,91.2
2023-01-11T12:59:37.687Z,91.1
2023-01-11T13:04:37.580Z,91.1
2023-01-11T13:09:37.583Z,89.8
2023-01-11T13:14:37.585Z,89.7
2023-01-11T13:19:37.631Z,89.1
2023-01-11T13:24:37.655Z,88.7
2023-01-11T13:29:37.734Z,88.5
2023-01-11T13:34:37.604Z,88.4
2023-01-11T13:39:37.600Z,88.3
2023-01-11T13:44:37.599Z,87.7
2023-01-11T13:49:37.606Z,87.2
2023-01-11T13:54:37.732Z,87.6
2023-01-11T13:59:37.730Z,88.3
2023-01-11T14:04:37.621Z,88.7
2023-01-11T14:09:37.620Z,88.4
2023-01-11T14:14:37.793Z,88.0
2023-01-11T14:19:37.622Z,87.8
2023-01-11T14:24:37.679Z,88.4
2023-01-11T14:29:37.700Z,88.4
2023-01-11T14:34:37.631Z,87.5
2023-01-11T14:39:37.636Z,87.4
2023-01-11T14:44:37.648Z,87.7
2023-01-11T14:49:37.643Z,87.8
2023-01-11T14:54:37.716Z,88.2
2023-01-11T14:59:37.769Z,88.5
2023-01-11T15:04:37.739Z,88.3
2023-01-11T15:09:37.660Z,88.1
2023-01-11T15:14:37.657Z,87.9
2023-01-11T15:19:37.675Z,87.6
2023-01-11T15:24:37.723Z,87.7
2023-01-11T15:29:37.724Z,88.2
2023-01-11T15:34:37.663Z,88.7
2023-01-11T15:39:37.666Z,89.2
2023-01-11T15:44:37.671Z,89.1
2023-01-11T15:49:37.675Z,89.6
2023-01-11T15:54:37.737Z,89.8
2023-01-11T15:59:37.751Z,89.4
2023-01-11T16:04:37.748Z,89.6
2023-01-11T16:09:37.690Z,89.7
2023-01-11T16:14:39.748Z,89.6
2023-01-11T16:19:37.695Z,89.8
2023-01-11T16:24:37.749Z,89.6
2023-01-11T16:29:37.820Z,89.4
2023-01-11T16:34:37.707Z,89.1
2023-01-11T16:39:37.705Z,89.1
2023-01-11T16:44:37.704Z,88.7
2023-01-11T16:49:37.703Z,88.2
2023-01-11T16:54:37.785Z,88.6
2023-01-11T16:59:37.782Z,87.9
2023-01-11T17:04:37.724Z,88.0
2023-01-11T17:09:37.729Z,88.3
2023-01-11T17:14:37.722Z,88.3
2023-01-11T17:19:37.726Z,88.3
2023-01-11T17:24:37.804Z,87.4
2023-01-11T17:29:37.855Z,87.4
2023-01-11T17:34:37.734Z,86.8
2023-01-11T17:39:37.742Z,86.2
2023-01-11T17:44:37.742Z,85.9
2023-01-11T17:49:37.763Z,85.6
2023-01-11T17:54:37.806Z,85.5
2023-01-11T17:59:37.875Z,85.8
2023-01-11T18:04:37.745Z,84.7
2023-01-11T18:09:37.756Z,85.0
2023-01-11T18:14:37.773Z,84.4
2023-01-11T18:19:37.758Z,84.1
2023-01-11T18:24:37.814Z,84.1
2023-01-11T18:29:37.893Z,84.2
2023-01-11T18:34:37.763Z,83.9
2023-01-11T18:39:37.767Z,84.4
2023-01-11T18:44:37.776Z,84.1
2023-01-11T18:49:37.795Z,84.6
2023-01-11T18:54:37.841Z,83.9
2023-01-11T18:59:37.851Z,85.5
2023-01-11T19:04:37.782Z,88.2
2023-01-11T19:09:37.804Z,89.4
2023-01-11T19:14:37.807Z,89.5
2023-01-11T19:19:37.816Z,91.3
2023-01-11T19:24:37.853Z,92.6
2023-01-11T19:29:37.952Z,92.8
2023-01-11T19:34:37.803Z,92.9
2023-01-11T19:39:37.820Z,92.9
2023-01-11T19:44:37.809Z,93.4
2023-01-11T19:49:37.879Z,93.8
2023-01-11T19:54:37.872Z,94.1
2023-01-11T19:59:37.893Z,94.0
2023-01-11T20:04:37.822Z,94.6
2023-01-11T20:09:37.830Z,94.9
2023-01-11T20:14:37.844Z,95.2
2023-01-11T20:19:37.821Z,96.0
2023-01-11T20:24:37.889Z,96.2
2023-01-11T20:29:37.958Z,96.4
2023-01-11T20:34:37.839Z,95.8
2023-01-11T20:39:37.840Z,96.0
2023-01-11T20:44:37.832Z,96.4
2023-01-11T20:49:37.843Z,97.0
2023-01-11T20:54:37.921Z,97.1
2023-01-11T20:59:37.977Z,97.2
2023-01-11T21:04:37.854Z,96.9
2023-01-11T21:09:37.869Z,97.0
2023-01-11T21:14:37.855Z,96.9
2023-01-11T21:19:37.868Z,97.4
2023-01-11T21:24:37.921Z,97.7
2023-01-11T21:29:37.930Z,97.6
2023-01-11T21:34:37.872Z,97.7
2023-01-11T21:39:37.868Z,97.6
2023-01-11T21:44:37.897Z,97.4
2023-01-11T21:49:37.888Z,97.5
2023-01-11T21:54:37.951Z,97.5
2023-01-11T21:59:37.945Z,97.6
2023-01-11T22:04:37.888Z,97.5
2023-01-11T22:09:37.892Z,97.7
2023-01-11T22:14:37.892Z,97.7
2023-01-11T22:19:37.895Z,97.7
2023-01-11T22:24:37.955Z,97.5
2023-01-11T22:29:38.019Z,97.3
2023-01-11T22:34:37.910Z,97.2
2023-01-11T22:39:37.910Z,97.0
2023-01-11T22:44:37.909Z,97.1
2023-01-11T22:49:37.909Z,97.5
2023-01-11T22:54:37.978Z,97.7
2023-01-11T22:59:37.975Z,98.1
2023-01-11T23:04:37.917Z,98.3
2023-01-11T23:09:37.925Z,98.5
2023-01-11T23:14:37.921Z,98.7
2023-01-11T23:19:37.942Z,98.6
2023-01-11T23:24:37.936Z,98.4
2023-01-11T23:29:37.953Z,98.1
2023-01-11T23:34:37.943Z,98.1
2023-01-11T23:39:37.931Z,97.7
2023-01-11T23:44:37.948Z,97.4
2023-01-11T23:49:37.956Z,97.7
2023-01-11T23:54:37.976Z,98.2
2023-01-11T23:59:37.973Z,98.6
